Time;durP1;ratioP1;P1;durP2;ratioP2;P2;SDS_P1;SDS_P2;PMS_P1;PMS_P2;Temp;Humidity;BMP_temperature;BMP_pressure;BME280_temperature;BME280_humidity;BME280_pressure;Samples;Min_cycle;Max_cycle;Signal;HPM_P1;HPM_P2
2024/02/28 05:49:34;;;;;;;15.40;5.55;;;7.00;99.90;;;;;;7278118;19;20078;-79
2024/02/28 05:52:03;;;;;;;16.95;5.70;;;6.90;99.90;;;;;;7402966;19;20317;-80
2024/02/28 05:54:33;;;;;;;12.23;6.00;;;6.90;99.90;;;;;;7383158;19;20021;-80
2024/02/28 05:57:02;;;;;;;13.90;5.40;;;6.90;99.90;;;;;;7382023;19;20070;-79
2024/02/28 05:59:31;;;;;;;13.88;6.03;;;6.90;99.90;;;;;;7383515;19;20029;-80
2024/02/28 06:02:00;;;;;;;11.40;5.82;;;6.90;99.90;;;;;;7383812;19;20026;-80
2024/02/28 06:04:28;;;;;;;27.73;6.70;;;6.90;99.90;;;;;;7406641;19;20019;-78
2024/02/28 06:07:00;;;;;;;18.00;6.22;;;6.90;99.90;;;;;;7388614;19;20002;-78
2024/02/28 06:09:30;;;;;;;11.85;5.72;;;7.00;99.90;;;;;;7383231;19;20257;-77
2024/02/28 06:11:58;;;;;;;13.52;6.28;;;7.00;99.90;;;;;;7383244;19;20094;-77
2024/02/28 06:15:13;;;;;;;12.50;5.95;;;7.00;99.90;;;;;;7391618;19;20007;-80
2024/02/28 06:17:42;;;;;;;12.55;5.57;;;6.90;99.90;;;;;;7394665;19;20011;-78
2024/02/28 06:20:11;;;;;;;17.35;5.63;;;6.90;99.90;;;;;;7389142;19;20023;-74
2024/02/28 06:22:42;;;;;;;22.40;6.18;;;6.90;99.90;;;;;;7390153;19;20020;-74
2024/02/28 06:25:18;;;;;;;14.95;6.07;;;6.90;99.90;;;;;;7417717;19;20011;-78
2024/02/28 06:27:46;;;;;;;12.85;5.95;;;6.90;99.90;;;;;;7391686;19;20246;-79
2024/02/28 06:30:16;;;;;;;16.00;6.57;;;6.90;99.90;;;;;;7388294;19;20006;-79
2024/02/28 06:32:45;;;;;;;12.45;6.43;;;7.00;99.90;;;;;;7389587;19;20010;-78
2024/02/28 06:35:14;;;;;;;14.52;7.15;;;7.00;99.90;;;;;;7387993;19;20007;-78
2024/02/28 06:37:49;;;;;;;16.20;7.50;;;7.00;99.90;;;;;;7390229;19;20361;-79
2024/02/28 06:40:18;;;;;;;20.08;7.07;;;7.00;99.90;;;;;;7409304;19;20006;-80
2024/02/28 06:42:47;;;;;;;13.15;6.93;;;6.90;99.90;;;;;;7389344;19;20091;-79
2024/02/28 06:45:16;;;;;;;14.35;7.38;;;7.00;99.90;;;;;;7388224;19;20278;-79
2024/02/28 06:47:44;;;;;;;23.48;6.53;;;7.00;99.90;;;;;;7388659;19;20003;-79
2024/02/28 06:50:13;;;;;;;22.70;7.93;;;7.10;99.90;;;;;;7387516;19;20388;-77
2024/02/28 06:52:45;;;;;;;20.35;7.55;;;7.10;99.90;;;;;;7386980;19;20086;-78
2024/02/28 06:55:14;;;;;;;;;;;7.10;99.90;;;;;;7411256;19;20007;-80
2024/02/28 06:57:44;;;;;;;21.80;7.47;;;7.20;99.90;;;;;;7390808;19;19910;-78
2024/02/28 07:00:14;;;;;;;18.20;6.80;;;7.10;99.90;;;;;;7391410;19;20023;-80
2024/02/28 07:02:43;;;;;;;13.43;6.70;;;7.10;99.90;;;;;;7388040;19;20037;-79
2024/02/28 07:05:12;;;;;;;12.18;6.70;;;7.00;99.90;;;;;;7386967;19;20019;-80
2024/02/28 07:07:40;;;;;;;18.73;6.53;;;7.00;99.90;;;;;;7385400;19;20281;-78
2024/02/28 07:10:13;;;;;;;11.55;6.00;;;7.00;99.90;;;;;;7409113;19;20002;-79
2024/02/28 07:12:42;;;;;;;28.95;7.30;;;7.00;99.90;;;;;;7392681;19;20017;-79
2024/02/28 07:15:11;;;;;;;12.43;6.72;;;7.00;99.90;;;;;;7392934;19;20033;-79
2024/02/28 07:17:39;;;;;;;18.15;6.97;;;7.00;99.90;;;;;;7390181;19;20011;-80
2024/02/28 07:20:09;;;;;;;14.35;6.50;;;6.90;99.90;;;;;;7386679;19;20115;-79
2024/02/28 07:22:38;;;;;;;16.67;7.57;;;7.00;99.90;;;;;;7387716;19;20007;-78
2024/02/28 07:25:08;;;;;;;21.80;7.40;;;7.00;99.90;;;;;;7407919;19;20011;-79
2024/02/28 07:27:39;;;;;;;26.23;7.18;;;7.10;99.90;;;;;;7386630;19;20366;-82
2024/02/28 07:30:09;;;;;;;21.83;7.05;;;7.10;99.90;;;;;;7388865;19;20022;-79
2024/02/28 07:32:38;;;;;;;21.50;7.50;;;7.20;99.90;;;;;;7388206;19;20035;-78
2024/02/28 07:35:08;;;;;;;16.23;7.05;;;7.20;99.90;;;;;;7387742;19;20002;-79
2024/02/28 07:37:37;;;;;;;16.15;7.30;;;7.30;99.90;;;;;;7388754;19;20357;-79
2024/02/28 07:40:08;;;;;;;16.88;8.43;;;7.30;99.90;;;;;;7408500;19;20035;-79
2024/02/28 07:42:39;;;;;;;28.37;8.10;;;7.30;99.90;;;;;;7387013;19;20006;-78
2024/02/28 07:45:08;;;;;;;19.77;6.97;;;7.40;99.90;;;;;;7388273;19;20239;-79
2024/02/28 07:47:37;;;;;;;27.48;8.82;;;7.40;99.90;;;;;;7387808;19;20072;-78
2024/02/28 07:50:06;;;;;;;17.90;7.68;;;7.40;99.90;;;;;;7387874;19;20019;-79
2024/02/28 07:52:37;;;;;;;15.10;7.45;;;7.40;99.90;;;;;;7401727;19;20010;-78
2024/02/28 07:55:07;;;;;;;18.70;9.27;;;7.50;99.90;;;;;;7408964;19;20087;-79
2024/02/28 07:57:38;;;;;;;18.00;8.60;;;7.50;99.90;;;;;;7391042;19;20009;-79
2024/02/28 08:00:08;;;;;;;21.40;9.00;;;7.60;99.90;;;;;;7387300;19;20009;-78
2024/02/28 08:02:38;;;;;;;24.38;9.18;;;7.70;99.90;;;;;;7387221;19;20023;-78
2024/02/28 08:05:08;;;;;;;16.73;9.23;;;7.80;99.90;;;;;;7389628;19;20055;-79
2024/02/28 08:07:37;;;;;;;20.17;8.90;;;7.80;99.90;;;;;;7388973;19;20586;-78
2024/02/28 08:10:06;;;;;;;23.00;10.32;;;7.90;99.90;;;;;;7411312;19;20075;-78
2024/02/28 08:12:35;;;;;;;27.73;9.75;;;7.90;99.90;;;;;;7385963;19;20226;-79
2024/02/28 08:15:08;;;;;;;36.08;10.30;;;7.90;99.90;;;;;;7386290;19;20011;-78
2024/02/28 08:17:36;;;;;;;21.33;10.07;;;8.00;99.90;;;;;;7385309;19;20017;-79
2024/02/28 08:20:06;;;;;;;25.17;9.88;;;8.00;99.90;;;;;;7387255;19;20003;-77
2024/02/28 08:22:35;;;;;;;26.23;9.95;;;8.10;99.90;;;;;;7407112;19;20086;-78
2024/02/28 08:25:03;;;;;;;25.85;10.20;;;8.10;99.90;;;;;;7384581;19;20023;-78
2024/02/28 08:27:34;;;;;;;33.35;11.80;;;8.20;99.90;;;;;;7384307;19;20023;-79
2024/02/28 08:30:02;;;;;;;35.78;12.38;;;8.30;99.90;;;;;;7385343;19;20242;-79
2024/02/28 08:32:34;;;;;;;31.20;12.57;;;8.50;99.90;;;;;;7384009;19;20020;-77
2024/02/28 08:35:03;;;;;;;31.00;11.27;;;8.60;99.90;;;;;;7382126;19;20023;-78
2024/02/28 08:37:31;;;;;;;16.85;9.40;;;8.60;99.90;;;;;;7408267;19;20006;-78
2024/02/28 08:40:00;;;;;;;32.33;10.48;;;8.70;99.90;;;;;;7385182;19;20003;-78
2024/02/28 08:42:29;;;;;;;25.48;11.00;;;8.80;99.90;;;;;;7384727;19;20318;-79
2024/02/28 08:44:59;;;;;;;22.45;10.45;;;8.80;99.90;;;;;;7385169;19;19999;-78
2024/02/28 08:47:28;;;;;;;26.75;10.45;;;8.90;99.90;;;;;;7388691;19;20025;-78
2024/02/28 08:50:00;;;;;;;20.33;10.32;;;9.00;99.90;;;;;;7386598;19;20046;-79
2024/02/28 08:52:28;;;;;;;18.60;10.25;;;9.00;99.90;;;;;;7405621;19;20014;-79
2024/02/28 08:54:57;;;;;;;25.45;10.57;;;9.10;99.90;;;;;;7384727;19;20007;-78
2024/02/28 08:57:26;;;;;;;23.15;10.45;;;9.20;99.90;;;;;;7384012;19;20010;-79
2024/02/28 08:59:54;;;;;;;27.10;10.38;;;9.30;99.90;;;;;;7387115;19;20007;-79
2024/02/28 09:02:23;;;;;;;24.45;10.70;;;9.30;99.90;;;;;;7388274;19;20007;-79
2024/02/28 09:04:56;;;;;;;23.15;11.02;;;9.30;99.90;;;;;;7389473;19;20033;-78
2024/02/28 09:07:27;;;;;;;26.98;10.57;;;9.40;99.90;;;;;;7407974;19;20019;-79
2024/02/28 09:09:56;;;;;;;19.83;9.68;;;9.50;99.90;;;;;;7386662;19;20014;-80
2024/02/28 09:12:25;;;;;;;19.45;9.35;;;9.50;99.90;;;;;;7383693;19;20031;-78
2024/02/28 09:14:57;;;;;;;25.77;9.27;;;9.60;99.90;;;;;;7385464;19;20019;-78
2024/02/28 09:17:26;;;;;;;18.63;9.50;;;9.60;99.90;;;;;;7386554;19;20360;-80
2024/02/28 09:19:55;;;;;;;22.60;10.52;;;9.60;99.90;;;;;;7398521;19;20025;-78
2024/02/28 09:22:26;;;;;;;20.90;9.80;;;9.70;99.90;;;;;;7422108;19;20010;-78
2024/02/28 09:24:55;;;;;;;26.70;9.57;;;9.80;99.90;;;;;;7399987;19;20006;-78
2024/02/28 09:27:24;;;;;;;25.95;10.27;;;9.80;99.90;;;;;;7401165;19;20011;-77
2024/02/28 09:29:53;;;;;;;21.80;9.27;;;9.80;99.90;;;;;;7396075;19;20024;-78
2024/02/28 09:32:21;;;;;;;21.67;9.63;;;9.90;99.90;;;;;;7392996;19;20002;-77
2024/02/28 09:34:50;;;;;;;23.80;9.05;;;10.00;99.90;;;;;;7385932;19;20349;-78
2024/02/28 09:37:20;;;;;;;15.65;8.88;;;10.10;99.90;;;;;;7403939;19;20007;-78
2024/02/28 09:39:52;;;;;;;19.30;8.90;;;10.10;99.90;;;;;;7384932;19;20006;-79
2024/02/28 09:42:21;;;;;;;21.55;9.65;;;10.20;99.90;;;;;;7387075;19;20426;-78
2024/02/28 09:44:51;;;;;;;23.17;8.65;;;10.40;99.90;;;;;;7385598;19;20255;-78
2024/02/28 09:47:19;;;;;;;13.45;7.30;;;10.40;99.90;;;;;;7381527;19;20014;-79
2024/02/28 09:49:52;;;;;;;16.13;8.00;;;10.60;99.90;;;;;;7384231;19;20031;-79
2024/02/28 09:52:21;;;;;;;21.70;6.65;;;10.60;99.90;;;;;;7403614;19;20003;-77
2024/02/28 09:54:53;;;;;;;6.50;3.17;;;10.80;99.90;;;;;;7383088;19;20023;-78
2024/02/28 09:57:27;;;;;;;8.25;3.45;;;10.90;99.90;;;;;;7384873;19;20014;-79
2024/02/28 09:59:57;;;;;;;12.45;4.10;;;10.90;99.90;;;;;;7385195;19;20038;-78
2024/02/28 10:02:27;;;;;;;11.65;4.03;;;11.00;99.90;;;;;;7381275;19;20013;-78
2024/02/28 10:04:57;;;;;;;8.93;4.07;;;11.00;99.90;;;;;;7381609;19;20006;-78
2024/02/28 10:07:26;;;;;;;10.05;3.70;;;11.10;99.90;;;;;;7403695;19;20029;-77
2024/02/28 10:09:57;;;;;;;10.23;3.10;;;11.10;99.90;;;;;;7380031;19;20270;-78
2024/02/28 10:12:25;;;;;;;;;;;11.20;99.90;;;;;;7382215;19;20059;-79
2024/02/28 10:14:54;;;;;;;18.65;6.05;;;11.10;99.90;;;;;;7381685;19;19951;-78
2024/02/28 10:17:26;;;;;;;8.30;3.40;;;11.10;99.90;;;;;;7382075;19;20028;-78
2024/02/28 10:19:55;;;;;;;5.82;3.03;;;11.10;99.90;;;;;;7382273;19;20022;-78
2024/02/28 10:22:23;;;;;;;9.25;3.00;;;11.20;99.90;;;;;;7402502;19;20251;-77
2024/02/28 10:25:03;;;;;;;11.02;2.60;;;11.30;99.90;;;;;;7379863;19;20016;-78
2024/02/28 10:27:35;;;;;;;16.75;3.17;;;11.30;99.90;;;;;;7379912;19;20006;-78
2024/02/28 10:30:05;;;;;;;4.93;2.15;;;11.30;99.90;;;;;;7380514;19;20007;-79
2024/02/28 10:32:35;;;;;;;8.18;2.55;;;11.40;99.90;;;;;;7381140;19;20009;-78
2024/02/28 10:35:04;;;;;;;8.52;3.20;;;11.50;99.90;;;;;;7382357;19;20020;-80
2024/02/28 10:37:35;;;;;;;10.57;3.90;;;11.40;99.90;;;;;;7403064;19;20025;-80
2024/02/28 10:40:08;;;;;;;9.68;4.15;;;11.30;99.90;;;;;;7381557;19;20010;-79
2024/02/28 10:42:40;;;;;;;7.05;3.13;;;11.30;99.90;;;;;;7384069;19;20003;-78
2024/02/28 10:45:10;;;;;;;8.70;2.80;;;11.30;99.90;;;;;;7383323;19;20014;-79
2024/02/28 10:47:43;;;;;;;13.45;2.90;;;11.10;99.90;;;;;;7381727;19;20215;-77
2024/02/28 10:50:12;;;;;;;9.70;3.22;;;11.20;99.90;;;;;;7381964;19;20209;-79
2024/02/28 10:52:46;;;;;;;7.95;2.72;;;11.30;99.90;;;;;;7404444;19;20082;-78
2024/02/28 10:55:25;;;;;;;5.80;2.28;;;11.40;99.90;;;;;;7382585;19;20014;-78
2024/02/28 10:58:04;;;;;;;10.05;2.63;;;11.40;99.90;;;;;;7383476;19;20033;-78
2024/02/28 11:00:34;;;;;;;7.40;2.45;;;11.50;99.90;;;;;;7388043;19;20351;-78
2024/02/28 11:03:04;;;;;;;8.02;2.83;;;11.50;99.90;;;;;;7388728;19;20027;-80
2024/02/28 11:05:40;;;;;;;8.40;2.55;;;11.50;99.90;;;;;;7389061;19;20058;-79
2024/02/28 11:08:12;;;;;;;11.40;2.65;;;11.40;99.90;;;;;;7386594;19;19996;-78
2024/02/28 11:10:47;;;;;;;3.67;2.13;;;11.40;99.90;;;;;;7409895;19;20358;-78
2024/02/28 11:13:24;;;;;;;10.05;2.38;;;11.50;99.90;;;;;;7385086;19;20023;-80
2024/02/28 11:15:55;;;;;;;6.95;2.25;;;11.60;99.90;;;;;;7387660;19;20024;-80
2024/02/28 11:18:25;;;;;;;10.65;2.70;;;11.50;99.90;;;;;;7386832;19;20021;-79
2024/02/28 11:20:54;;;;;;;3.30;1.95;;;11.50;99.90;;;;;;7387954;19;20021;-79
2024/02/28 11:23:23;;;;;;;3.15;2.05;;;11.70;99.90;;;;;;7387925;19;20014;-79
2024/02/28 11:25:54;;;;;;;8.82;2.70;;;11.70;99.90;;;;;;7398613;19;20226;-79
2024/02/28 11:28:24;;;;;;;8.23;3.00;;;11.80;99.90;;;;;;7406006;19;20007;-77
2024/02/28 11:30:53;;;;;;;4.70;1.95;;;11.80;99.90;;;;;;7386356;19;20007;-77
2024/02/28 11:33:23;;;;;;;8.30;2.72;;;11.80;99.90;;;;;;7385332;19;20063;-78
2024/02/28 11:35:58;;;;;;;10.50;3.60;;;11.80;99.90;;;;;;7386916;19;20084;-79
2024/02/28 11:38:27;;;;;;;7.38;3.42;;;11.80;99.90;;;;;;7388404;19;20298;-78
2024/02/28 11:40:58;;;;;;;7.50;2.78;;;11.80;99.90;;;;;;7391665;19;20011;-78
2024/02/28 11:43:27;;;;;;;11.50;2.75;;;11.70;99.90;;;;;;7415497;19;20007;-79
2024/02/28 11:45:57;;;;;;;6.25;2.78;;;11.50;99.90;;;;;;7387357;19;19999;-79
2024/02/28 11:48:28;;;;;;;5.97;2.80;;;11.60;99.90;;;;;;7387726;19;20017;-79
2024/02/28 11:50:56;;;;;;;6.82;2.33;;;11.60;99.90;;;;;;7388024;19;20058;-79
2024/02/28 11:53:26;;;;;;;9.85;4.38;;;11.60;99.90;;;;;;7389755;19;20063;-79
2024/02/28 11:55:58;;;;;;;8.57;2.90;;;11.60;99.90;;;;;;7391147;19;20024;-80
2024/02/28 11:58:27;;;;;;;8.00;2.55;;;11.50;99.90;;;;;;7409558;19;20010;-80
2024/02/28 12:00:56;;;;;;;10.00;2.95;;;11.50;99.90;;;;;;7385930;19;20020;-79
2024/02/28 12:03:24;;;;;;;21.00;7.90;;;11.50;99.90;;;;;;7385921;19;20024;-81
2024/02/28 12:05:54;;;;;;;18.67;5.93;;;11.50;99.90;;;;;;7387526;19;20010;-80
2024/02/28 12:08:23;;;;;;;8.48;2.60;;;11.60;99.90;;;;;;7386558;19;20047;-79
2024/02/28 12:10:51;;;;;;;14.43;2.88;;;11.60;99.90;;;;;;7410367;19;20027;-79
2024/02/28 12:13:26;;;;;;;3.88;1.88;;;11.60;99.90;;;;;;7387536;19;20011;-80
2024/02/28 12:15:54;;;;;;;8.20;2.25;;;11.60;99.90;;;;;;7387707;19;20023;-80
2024/02/28 12:18:23;;;;;;;6.63;1.80;;;11.70;99.90;;;;;;7394755;19;20003;-80
2024/02/28 12:20:52;;;;;;;8.45;2.20;;;11.70;99.90;;;;;;7394986;19;20116;-79
2024/02/28 12:23:20;;;;;;;5.93;1.67;;;11.70;99.90;;;;;;7393656;19;20014;-79
2024/02/28 12:25:49;;;;;;;6.50;1.77;;;11.60;99.90;;;;;;7412549;19;20233;-78
2024/02/28 12:28:18;;;;;;;3.03;1.63;;;11.60;99.90;;;;;;7389469;19;20019;-80
2024/02/28 12:30:49;;;;;;;8.63;2.25;;;11.50;99.90;;;;;;7392026;19;20007;-80
2024/02/28 12:33:18;;;;;;;7.50;2.10;;;11.50;99.90;;;;;;7391640;19;20033;-79
2024/02/28 12:35:47;;;;;;;3.42;1.77;;;11.50;99.90;;;;;;7391063;19;20011;-79
2024/02/28 12:38:15;;;;;;;10.13;1.95;;;11.60;99.90;;;;;;7387511;19;20006;-79
2024/02/28 12:40:44;;;;;;;7.20;2.30;;;11.60;99.90;;;;;;7409048;19;20345;-79
2024/02/28 12:43:14;;;;;;;6.13;3.03;;;11.80;99.90;;;;;;7385994;19;20090;-80
2024/02/28 12:45:42;;;;;;;6.15;2.65;;;11.80;99.90;;;;;;7385678;19;20053;-79
2024/02/28 12:48:14;;;;;;;10.77;2.22;;;11.90;99.90;;;;;;7387782;19;20003;-79
2024/02/28 12:50:42;;;;;;;8.15;2.03;;;12.00;99.90;;;;;;7386511;19;20295;-79
2024/02/28 12:53:11;;;;;;;7.47;2.10;;;12.10;99.90;;;;;;7384719;19;20014;-79
2024/02/28 12:55:40;;;;;;;12.05;4.75;;;12.30;99.90;;;;;;7405473;19;20014;-80
2024/02/28 12:58:08;;;;;;;6.95;2.40;;;12.40;99.90;;;;;;7383520;19;20014;-79
2024/02/28 13:00:37;;;;;;;7.78;2.20;;;12.40;99.90;;;;;;7384069;19;20007;-79
2024/02/28 13:03:06;;;;;;;4.32;2.08;;;12.60;99.90;;;;;;7385787;19;20007;-78
2024/02/28 13:05:38;;;;;;;13.10;2.10;;;12.70;99.90;;;;;;7383177;19;20028;-77
2024/02/28 13:08:06;;;;;;;;;;;12.90;99.90;;;;;;7383425;19;20013;-78
2024/02/28 13:10:40;;;;;;;10.80;3.00;;;13.00;99.90;;;;;;7406166;19;19951;-78
2024/02/28 13:13:09;;;;;;;10.13;2.17;;;13.10;99.90;;;;;;7382500;19;20003;-80
2024/02/28 13:15:38;;;;;;;8.32;2.03;;;13.10;99.90;;;;;;7387426;19;20025;-78
2024/02/28 13:18:09;;;;;;;4.60;1.85;;;13.00;99.90;;;;;;7385587;19;20010;-78
2024/02/28 13:20:40;;;;;;;8.43;2.00;;;13.10;99.90;;;;;;7383579;19;20003;-79
2024/02/28 13:23:09;;;;;;;5.25;1.63;;;13.10;99.90;;;;;;7383463;19;20033;-78
2024/02/28 13:25:38;;;;;;;4.25;1.60;;;13.00;99.90;;;;;;7403925;19;20010;-79
2024/02/28 13:28:07;;;;;;;6.40;2.10;;;13.00;99.90;;;;;;7385892;19;20003;-78
2024/02/28 13:30:37;;;;;;;10.98;1.80;;;13.00;99.90;;;;;;7387717;19;20006;-79
2024/02/28 13:33:06;;;;;;;9.73;2.10;;;13.00;99.90;;;;;;7383670;19;20003;-79
2024/02/28 13:35:35;;;;;;;7.40;2.00;;;13.00;99.90;;;;;;7384575;19;20290;-79
2024/02/28 13:38:06;;;;;;;7.50;1.70;;;13.00;99.90;;;;;;7382799;19;20010;-78
2024/02/28 13:40:35;;;;;;;;;;;13.00;99.90;;;;;;7407451;19;20011;-78
2024/02/28 13:43:04;;;;;;;5.57;1.40;;;13.00;99.90;;;;;;7386106;19;19910;-78
2024/02/28 13:45:32;;;;;;;11.45;1.70;;;12.90;99.90;;;;;;7385312;19;20011;-78
2024/02/28 13:48:01;;;;;;;6.43;1.30;;;12.80;99.90;;;;;;7382195;19;20240;-78
2024/02/28 13:50:32;;;;;;;6.85;1.80;;;12.80;99.90;;;;;;7381480;19;20306;-79
2024/02/28 13:53:00;;;;;;;11.87;1.50;;;12.90;99.90;;;;;;7404304;19;20078;-79
2024/02/28 13:55:32;;;;;;;8.63;1.52;;;12.80;99.90;;;;;;7404762;19;20111;-78
2024/02/28 13:58:00;;;;;;;7.50;2.22;;;12.90;99.90;;;;;;7380971;19;20338;-78
2024/02/28 14:00:29;;;;;;;13.15;4.50;;;12.90;99.90;;;;;;7383375;19;20010;-80
2024/02/28 14:02:58;;;;;;;11.32;3.90;;;12.90;99.90;;;;;;7380510;19;20070;-79
2024/02/28 14:05:26;;;;;;;11.50;2.67;;;12.90;99.90;;;;;;7381752;19;20015;-77
2024/02/28 14:07:55;;;;;;;7.85;1.88;;;13.00;99.90;;;;;;7403877;19;20017;-78
2024/02/28 14:10:24;;;;;;;8.02;3.05;;;13.10;99.90;;;;;;7381810;19;20003;-80
2024/02/28 14:12:55;;;;;;;9.13;2.10;;;13.20;99.90;;;;;;7381685;19;20007;-80
2024/02/28 14:15:24;;;;;;;;;;;13.10;99.90;;;;;;7382445;19;20261;-78
2024/02/28 14:17:53;;;;;;;12.25;2.10;;;13.20;99.90;;;;;;7382192;19;19918;-80
2024/02/28 14:20:22;;;;;;;10.10;2.70;;;13.00;99.90;;;;;;7382636;19;20013;-79
2024/02/28 14:22:51;;;;;;;6.75;2.10;;;13.10;99.90;;;;;;7404809;19;20018;-79
2024/02/28 14:25:20;;;;;;;5.47;1.58;;;13.10;99.90;;;;;;7384716;19;20007;-79
2024/02/28 14:27:49;;;;;;;6.43;2.05;;;13.00;99.90;;;;;;7383430;19;20024;-79
2024/02/28 14:30:22;;;;;;;9.57;1.85;;;13.20;99.90;;;;;;7382599;19;20066;-79
2024/02/28 14:32:51;;;;;;;6.97;1.90;;;13.20;99.90;;;;;;7382475;19;20087;-79
2024/02/28 14:35:20;;;;;;;5.45;1.48;;;13.20;99.90;;;;;;7391326;19;20010;-78
2024/02/28 14:37:48;;;;;;;16.38;2.22;;;13.30;99.90;;;;;;7415368;19;20019;-79
2024/02/28 14:40:17;;;;;;;5.68;1.67;;;13.20;99.90;;;;;;7393152;19;20034;-79
2024/02/28 14:42:47;;;;;;;5.55;1.98;;;13.10;99.90;;;;;;7389980;19;20019;-79
2024/02/28 14:45:17;;;;;;;9.50;1.60;;;12.90;99.90;;;;;;7387879;19;20003;-78
2024/02/28 14:47:48;;;;;;;5.50;1.65;;;12.90;99.90;;;;;;7388076;19;20003;-78
2024/02/28 14:50:17;;;;;;;5.88;1.58;;;12.80;99.90;;;;;;7387996;19;20074;-79
2024/02/28 14:52:45;;;;;;;4.30;1.52;;;12.80;99.90;;;;;;7410538;19;20011;-79
2024/02/28 14:55:14;;;;;;;8.77;1.45;;;12.80;99.90;;;;;;7387936;19;20007;-79
2024/02/28 14:57:43;;;;;;;10.85;2.10;;;12.90;99.90;;;;;;7388850;19;20071;-78
2024/02/28 15:00:13;;;;;;;14.60;2.00;;;12.80;99.90;;;;;;7387784;19;20014;-79
2024/02/28 15:02:42;;;;;;;7.65;1.67;;;12.80;99.90;;;;;;7389624;19;20009;-79
2024/02/28 15:05:14;;;;;;;7.80;1.85;;;12.90;99.90;;;;;;7387496;19;20011;-80
2024/02/28 15:07:43;;;;;;;8.98;1.77;;;12.90;99.90;;;;;;7410907;19;20039;-79
2024/02/28 15:10:13;;;;;;;11.43;1.73;;;12.80;99.90;;;;;;7389138;19;20060;-79
2024/02/28 15:12:42;;;;;;;12.55;2.13;;;12.70;99.90;;;;;;7389921;19;20268;-79
2024/02/28 15:15:11;;;;;;;10.07;2.10;;;12.70;99.90;;;;;;7392233;19;20010;-79
2024/02/28 15:17:40;;;;;;;5.38;2.03;;;12.40;99.90;;;;;;7394433;19;20090;-79
2024/02/28 15:20:13;;;;;;;10.48;2.20;;;12.30;99.90;;;;;;7400234;19;20023;-77
2024/02/28 15:22:42;;;;;;;15.93;2.10;;;12.20;99.90;;;;;;7414959;19;20010;-80
2024/02/28 15:25:12;;;;;;;8.98;2.28;;;12.30;99.90;;;;;;7391004;19;20002;-79
2024/02/28 15:27:41;;;;;;;5.25;2.00;;;12.20;99.90;;;;;;7388829;19;20006;-80
2024/02/28 15:30:11;;;;;;;13.30;2.45;;;12.30;99.90;;;;;;7389204;19;20210;-78
2024/02/28 15:32:41;;;;;;;3.85;1.80;;;12.30;99.90;;;;;;7388247;19;20014;-79
2024/02/28 15:35:13;;;;;;;6.63;2.80;;;12.50;99.90;;;;;;7386040;19;20070;-78
2024/02/28 15:37:42;;;;;;;12.50;3.95;;;12.10;99.90;;;;;;7405213;19;20027;-79
2024/02/28 15:40:11;;;;;;;10.82;2.60;;;12.20;99.90;;;;;;7386417;19;20002;-80
2024/02/28 15:42:40;;;;;;;14.50;2.83;;;12.20;99.90;;;;;;7387374;19;20010;-78
2024/02/28 15:45:09;;;;;;;8.20;2.55;;;12.30;99.90;;;;;;7386793;19;20023;-79
2024/02/28 15:47:38;;;;;;;6.47;2.35;;;12.50;99.90;;;;;;7386365;19;20011;-80
2024/02/28 15:50:09;;;;;;;8.45;2.70;;;12.60;99.90;;;;;;7408068;19;20592;-79
2024/02/28 15:52:40;;;;;;;13.30;2.42;;;12.70;99.90;;;;;;7387822;19;20272;-79
2024/02/28 15:55:11;;;;;;;6.38;2.22;;;12.70;99.90;;;;;;7386286;19;20082;-78
2024/02/28 15:57:39;;;;;;;5.20;1.90;;;12.80;99.90;;;;;;7387131;19;20013;-80
2024/02/28 16:00:09;;;;;;;4.50;2.08;;;12.90;99.90;;;;;;7386536;19;20020;-78
2024/02/28 16:02:38;;;;;;;7.70;2.03;;;13.00;99.90;;;;;;7387931;19;20021;-81
2024/02/28 16:05:07;;;;;;;8.70;2.33;;;13.10;99.90;;;;;;7405448;19;20263;-78
2024/02/28 16:07:36;;;;;;;4.20;1.83;;;13.10;99.90;;;;;;7386273;19;20022;-79
2024/02/28 16:10:08;;;;;;;5.63;2.38;;;12.80;99.90;;;;;;7385908;19;20062;-78
2024/02/28 16:12:37;;;;;;;8.35;1.60;;;12.80;99.90;;;;;;7390419;19;20062;-78
2024/02/28 16:15:08;;;;;;;4.53;1.58;;;12.70;99.90;;;;;;7388615;19;20011;-81
2024/02/28 16:17:36;;;;;;;7.50;1.30;;;12.70;99.90;;;;;;7385261;19;20013;-79
2024/02/28 16:20:06;;;;;;;7.30;1.58;;;12.70;99.90;;;;;;7410666;19;20029;-78
2024/02/28 16:22:35;;;;;;;7.35;1.95;;;12.70;99.90;;;;;;7385398;19;20242;-78
2024/02/28 16:25:07;;;;;;;5.43;1.80;;;12.60;99.90;;;;;;7387049;19;20011;-79
2024/02/28 16:27:36;;;;;;;7.80;1.88;;;12.60;99.90;;;;;;7389030;19;20026;-79
2024/02/28 16:30:06;;;;;;;3.95;1.50;;;12.50;99.90;;;;;;7388974;19;20038;-79
2024/02/28 16:32:35;;;;;;;5.73;2.00;;;12.60;99.90;;;;;;7385829;19;20043;-79
2024/02/28 16:35:04;;;;;;;12.65;1.65;;;12.60;99.90;;;;;;7405034;19;20014;-79
2024/02/28 16:37:33;;;;;;;6.32;1.98;;;12.60;99.90;;;;;;7385361;19;20013;-78
2024/02/28 16:40:01;;;;;;;6.38;1.70;;;12.50;99.90;;;;;;7384789;19;20027;-78
2024/02/28 16:42:33;;;;;;;9.30;2.20;;;12.60;99.90;;;;;;7385038;19;20020;-78
2024/02/28 16:45:02;;;;;;;;;;;12.50;99.90;;;;;;7385837;19;20007;-78
2024/02/28 16:47:31;;;;;;;13.77;2.63;;;12.60;99.90;;;;;;7383307;19;19925;-79
2024/02/28 16:50:00;;;;;;;11.95;2.70;;;12.60;99.90;;;;;;7403817;19;20013;-78
2024/02/28 16:52:29;;;;;;;7.43;2.25;;;12.50;99.90;;;;;;7383745;19;20062;-79
2024/02/28 16:54:57;;;;;;;8.57;2.80;;;12.50;99.90;;;;;;7381149;19;20010;-79
2024/02/28 16:57:26;;;;;;;18.95;3.00;;;12.50;99.90;;;;;;7383412;19;20002;-78
2024/02/28 16:59:57;;;;;;;11.70;2.33;;;12.60;99.90;;;;;;7383292;19;20003;-78
2024/02/28 17:02:26;;;;;;;9.15;2.95;;;12.60;99.90;;;;;;7384782;19;20027;-81
2024/02/28 17:04:55;;;;;;;10.38;2.50;;;12.60;99.90;;;;;;7407093;19;20249;-78
2024/02/28 17:07:24;;;;;;;13.48;2.58;;;12.60;99.90;;;;;;7388807;19;20017;-80
2024/02/28 17:09:54;;;;;;;11.27;2.80;;;12.60;99.90;;;;;;7388386;19;20055;-80
2024/02/28 17:12:23;;;;;;;13.63;3.13;;;12.60;99.90;;;;;;7386132;19;20006;-79
2024/02/28 17:14:52;;;;;;;14.05;2.28;;;12.60;99.90;;;;;;7384602;19;20003;-79
2024/02/28 17:17:25;;;;;;;7.10;2.50;;;12.60;99.90;;;;;;7385796;19;20006;-79
2024/02/28 17:19:55;;;;;;;11.55;3.42;;;12.60;99.90;;;;;;7408292;19;20027;-79
2024/02/28 17:22:24;;;;;;;9.77;3.08;;;12.60;99.90;;;;;;7387294;19;20239;-78
2024/02/28 17:24:53;;;;;;;11.05;2.97;;;12.60;99.90;;;;;;7385283;19;20046;-79
2024/02/28 17:27:22;;;;;;;8.18;2.65;;;12.60;99.90;;;;;;7382445;19;20055;-78
2024/02/28 17:29:50;;;;;;;15.82;2.55;;;12.50;99.90;;;;;;7383438;19;20034;-79
2024/02/28 17:32:19;;;;;;;11.10;2.65;;;12.60;99.90;;;;;;7381904;19;20002;-78
2024/02/28 17:34:52;;;;;;;9.85;3.05;;;12.50;99.90;;;;;;7403892;19;20027;-80
2024/02/28 17:37:22;;;;;;;9.10;2.72;;;12.50;99.90;;;;;;7382083;19;20015;-79
2024/02/28 17:39:52;;;;;;;7.45;2.78;;;12.50;99.90;;;;;;7384520;19;19999;-78
2024/02/28 17:42:21;;;;;;;14.65;3.25;;;12.50;99.90;;;;;;7383670;19;20007;-78
2024/02/28 17:44:51;;;;;;;7.30;3.10;;;12.30;99.90;;;;;;7382945;19;20007;-79
2024/02/28 17:47:20;;;;;;;8.18;3.30;;;12.40;99.90;;;;;;7384744;19;20016;-79
2024/02/28 17:49:51;;;;;;;12.50;3.90;;;12.40;99.90;;;;;;7406289;19;20265;-80
2024/02/28 17:52:20;;;;;;;;;;;12.40;99.90;;;;;;7385050;19;20007;-79
2024/02/28 17:54:49;;;;;;;9.00;3.67;;;12.40;99.90;;;;;;7384273;19;19929;-79
2024/02/28 17:57:24;;;;;;;16.52;4.97;;;12.40;99.90;;;;;;7383212;19;20361;-79
2024/02/28 17:59:52;;;;;;;11.07;3.75;;;12.30;99.90;;;;;;7388221;19;20003;-79
2024/02/28 18:02:24;;;;;;;15.30;4.95;;;12.40;99.90;;;;;;7390567;19;20015;-79
2024/02/28 18:04:55;;;;;;;17.25;4.05;;;12.30;99.90;;;;;;7417545;19;20014;-80
2024/02/28 18:07:24;;;;;;;13.25;4.47;;;12.30;99.90;;;;;;7396412;19;20007;-79
2024/02/28 18:09:52;;;;;;;12.10;4.07;;;12.30;99.90;;;;;;7399877;19;20002;-78
2024/02/28 18:12:21;;;;;;;19.98;4.40;;;12.20;99.90;;;;;;7401477;19;20019;-78
2024/02/28 18:14:50;;;;;;;10.95;4.30;;;12.20;99.90;;;;;;7400749;19;20023;-78
2024/02/28 18:17:20;;;;;;;6.82;3.80;;;12.10;99.90;;;;;;7400645;19;20081;-79
2024/02/28 18:19:49;;;;;;;16.23;4.72;;;12.20;99.90;;;;;;7412414;19;20011;-79
2024/02/28 18:22:20;;;;;;;11.68;4.60;;;12.10;99.90;;;;;;7389703;19;20404;-80
2024/02/28 18:24:49;;;;;;;10.90;4.55;;;12.10;99.90;;;;;;7389094;19;20010;-79
2024/02/28 18:27:19;;;;;;;22.40;5.40;;;12.10;99.90;;;;;;7391900;19;20373;-80
2024/02/28 18:29:48;;;;;;;13.20;4.93;;;12.10;99.90;;;;;;7389223;19;19999;-80
2024/02/28 18:32:16;;;;;;;18.42;6.20;;;12.00;99.90;;;;;;7390817;19;20286;-79
2024/02/28 18:34:47;;;;;;;18.65;6.18;;;12.00;99.90;;;;;;7410812;19;20290;-79
2024/02/28 18:37:15;;;;;;;18.58;6.20;;;12.00;99.90;;;;;;7389668;19;20033;-79
2024/02/28 18:39:47;;;;;;;19.65;5.93;;;11.90;99.90;;;;;;7389751;19;20051;-78
2024/02/28 18:42:15;;;;;;;12.00;4.88;;;11.90;99.90;;;;;;7389847;19;20051;-80
2024/02/28 18:44:44;;;;;;;13.15;5.60;;;11.90;99.90;;;;;;7390149;19;20021;-79
2024/02/28 18:47:13;;;;;;;22.63;6.47;;;11.90;99.90;;;;;;7408482;19;20079;-78